Weather reports worldwide

Advertisment
Great Dun Fell, United Kingdom (3227): temperature & dewpoint: 15.01.2020 23:00:00 - 21.01.2020 23:00:00 (GMT)Great Dun Fell, United Kingdom (3227): wind speed & gusts: 15.01.2020 23:00:00 - 21.01.2020 23:00:00 (GMT)Great Dun Fell, United Kingdom (3227): wind direction: 15.01.2020 23:00:00 - 21.01.2020 23:00:00 (GMT)
Date & Time tt [°C] td [°C] ff [km/h] ff [kn] fx [km/h] fx [kn] dd
21.01.2020 23:00:00 4,9 - 37 20 50 27 NW
21.01.2020 22:00:00 4,6 - 39 21 46 25 WNW
21.01.2020 21:00:00 4,7 - 31 17 - - WNW
21.01.2020 20:00:00 4,9 - 37 20 46 25 NW
21.01.2020 19:00:00 4,2 - 31 17 - - WNW
21.01.2020 18:00:00 4,2 - 35 19 - - WNW
21.01.2020 17:00:00 3,7 - 28 15 - - W
21.01.2020 16:00:00 3,3 - 29 16 - - WSW
21.01.2020 15:00:00 3,3 - 29 16 - - W
21.01.2020 14:00:00 3,1 - 34 18 - - W
21.01.2020 13:00:00 3,0 - 31 17 - - W
21.01.2020 12:00:00 3,0 - 18 10 - - W
21.01.2020 11:00:00 3,0 - 21 11 - - W
21.01.2020 10:00:00 3,1 - 24 13 - - WNW
21.01.2020 09:00:00 2,7 - 18 10 - - W
21.01.2020 08:00:00 3,3 - 31 17 46 25 WNW
21.01.2020 07:00:00 2,2 - 29 16 - - WNW
21.01.2020 06:00:00 1,8 - 22 12 - - W
21.01.2020 05:00:00 1,3 - 31 17 46 25 W
21.01.2020 04:00:00 1,1 - 34 18 46 25 W
21.01.2020 03:00:00 1,0 - 42 23 65 35 W
21.01.2020 02:00:00 1,0 - 54 29 78 42 W
21.01.2020 01:00:00 1,0 - 59 32 74 40 W
21.01.2020 00:00:00 0,9 - 59 32 72 39 W
20.01.2020 23:00:00 0,8 - 55 30 72 39 W
20.01.2020 22:00:00 0,6 - 55 30 74 40 W
20.01.2020 21:00:00 0,6 - 65 35 72 39 W
20.01.2020 20:00:00 0,8 - 52 28 65 35 W
20.01.2020 19:00:00 0,7 - 57 31 65 35 W
20.01.2020 18:00:00 0,5 - 54 29 61 33 W
20.01.2020 17:00:00 0,6 - 52 28 59 32 W
20.01.2020 16:00:00 0,8 - 48 26 55 30 WSW
20.01.2020 15:00:00 0,8 - 46 25 55 30 WSW
20.01.2020 14:00:00 0,2 - 48 26 54 29 WSW
20.01.2020 13:00:00 0,0 - 46 25 52 28 WSW
20.01.2020 12:00:00 -0,1 - 44 24 52 28 WSW
20.01.2020 11:00:00 -0,1 - 46 25 55 30 WSW
20.01.2020 10:00:00 -0,1 - 52 28 59 32 W
20.01.2020 09:00:00 -0,2 - 55 30 61 33 W
20.01.2020 08:00:00 -0,4 -0,4 57 31 65 35 W
20.01.2020 07:00:00 -0,6 -0,6 59 32 65 35 WSW
20.01.2020 06:00:00 -0,9 -1,5 59 32 63 34 WSW
20.01.2020 05:00:00 -0,9 -1,5 61 33 68 37 WSW
20.01.2020 04:00:00 -1,1 -1,6 55 30 65 35 WSW
20.01.2020 03:00:00 -1,1 -1,7 54 29 65 35 WSW
20.01.2020 02:00:00 -1,0 -1,8 57 31 65 35 W
20.01.2020 01:00:00 -1,2 -1,8 55 30 68 37 WSW
20.01.2020 00:00:00 -1,1 -2,0 52 28 57 31 WSW
19.01.2020 23:00:00 -1,1 -2,1 44 24 65 35 WSW
19.01.2020 22:00:00 -1,1 -2,0 54 29 67 36 WSW
19.01.2020 21:00:00 -1,1 -1,9 50 27 59 32 WSW
19.01.2020 20:00:00 -0,9 -1,8 48 26 54 29 WSW
19.01.2020 19:00:00 -0,5 -0,8 48 26 55 30 WSW
19.01.2020 18:00:00 -0,6 -0,9 54 29 57 31 WSW
19.01.2020 17:00:00 -0,7 -1,4 52 28 57 31 WSW
19.01.2020 16:00:00 -0,8 -1,7 44 24 48 26 WSW
19.01.2020 15:00:00 -0,9 -1,5 42 23 - - WSW
19.01.2020 14:00:00 -1,1 -1,5 41 22 46 25 W
19.01.2020 13:00:00 -1,3 - 35 19 - - W
19.01.2020 12:00:00 -0,8 - 34 18 - - WSW
19.01.2020 11:00:00 -0,9 -0,9 28 15 - - WSW
19.01.2020 10:00:00 -0,9 -0,9 24 13 - - W
19.01.2020 09:00:00 -1,6 -1,8 26 14 - - W
19.01.2020 08:00:00 -1,8 -2,1 24 13 - - W
19.01.2020 07:00:00 -1,4 -1,7 26 14 - - WNW
19.01.2020 06:00:00 -1,7 -2,1 18 10 - - WNW
19.01.2020 05:00:00 -2,5 -3,5 18 10 - - WNW
19.01.2020 04:00:00 -2,4 -3,8 18 10 - - NW
19.01.2020 03:00:00 -2,5 -3,7 18 10 - - NNW
19.01.2020 02:00:00 -2,4 -3,3 22 12 - - N
19.01.2020 01:00:00 -2,5 -3,0 18 10 - - NW
19.01.2020 00:00:00 -2,2 -2,4 24 13 - - NNW
18.01.2020 23:00:00 -2,3 -2,8 29 16 46 25 NNW
18.01.2020 22:00:00 -2,3 -2,7 41 22 50 27 NNW
18.01.2020 21:00:00 -2,3 -2,5 41 22 54 29 NNW
18.01.2020 20:00:00 -1,8 -1,9 42 23 50 27 NNW
18.01.2020 19:00:00 -1,4 -1,5 35 19 48 26 NW
18.01.2020 18:00:00 -1,2 -1,3 39 21 54 29 NW
18.01.2020 17:00:00 -1,2 -1,3 42 23 61 33 NW
18.01.2020 16:00:00 -1,3 -1,3 46 25 57 31 NW
18.01.2020 15:00:00 -1,3 -1,3 46 25 63 34 NW
18.01.2020 14:00:00 -1,3 -1,3 48 26 67 36 WNW
18.01.2020 13:00:00 -1,1 -1,1 46 25 65 35 WNW
18.01.2020 12:00:00 -1,3 -1,3 44 24 59 32 W
18.01.2020 11:00:00 -1,4 -1,6 46 25 63 34 W
18.01.2020 10:00:00 -1,7 -2,0 46 25 57 31 W
18.01.2020 09:00:00 -1,9 -2,2 41 22 57 31 WNW
18.01.2020 08:00:00 -2,4 -2,6 42 23 55 30 WNW
18.01.2020 07:00:00 -2,6 -2,7 41 22 57 31 WNW
18.01.2020 06:00:00 -2,4 -2,5 44 24 59 32 WNW
18.01.2020 05:00:00 -2,2 -2,3 44 24 55 30 WNW
18.01.2020 04:00:00 -2,3 -2,4 48 26 68 37 WNW
18.01.2020 03:00:00 -2,1 -2,3 52 28 67 36 W
18.01.2020 02:00:00 -2,0 -2,2 44 24 61 33 W
18.01.2020 01:00:00 -1,8 -2,0 48 26 59 32 W
18.01.2020 00:00:00 -1,7 -1,9 52 28 67 36 WNW
17.01.2020 23:00:00 -1,6 -1,8 44 24 55 30 WNW
17.01.2020 22:00:00 -1,4 -1,6 46 25 65 35 WNW
17.01.2020 21:00:00 -0,8 -0,8 48 26 57 31 W
17.01.2020 20:00:00 -1,0 -1,0 41 22 57 31 WNW
17.01.2020 19:00:00 -0,9 -0,9 46 25 65 35 W
17.01.2020 18:00:00 -0,8 -0,8 46 25 57 31 W
17.01.2020 17:00:00 -1,2 -1,3 50 27 57 31 WSW
17.01.2020 16:00:00 -1,1 -1,1 48 26 63 34 W
17.01.2020 15:00:00 -1,1 -1,1 55 30 61 33 W
17.01.2020 14:00:00 -1,1 -1,2 54 29 63 34 W
17.01.2020 13:00:00 -1,0 -1,0 50 27 57 31 W
17.01.2020 12:00:00 -1,2 -1,3 44 24 55 30 W
17.01.2020 11:00:00 -0,8 -0,8 34 18 - - W
17.01.2020 10:00:00 -1,1 -1,1 24 13 - - W
17.01.2020 09:00:00 -1,4 -1,7 28 15 - - WNW
17.01.2020 08:00:00 -0,8 - 24 13 - - WNW
17.01.2020 07:00:00 -0,8 - 21 11 - - W
17.01.2020 06:00:00 0,3 - 21 11 50 27 WSW
17.01.2020 05:00:00 1,4 - 46 25 63 34 SW
17.01.2020 04:00:00 1,4 - 52 28 61 33 SSW
17.01.2020 03:00:00 1,4 - 46 25 70 38 SW
17.01.2020 02:00:00 1,6 - 57 31 78 42 SW
17.01.2020 01:00:00 2,2 - 50 27 68 37 SW
17.01.2020 00:00:00 2,3 - 50 27 68 37 SW
16.01.2020 23:00:00 1,9 - 50 27 63 34 WSW
16.01.2020 22:00:00 2,2 - 50 27 76 41 WSW
16.01.2020 21:00:00 4,4 - 78 42 100 54 WSW
16.01.2020 20:00:00 5,1 - 83 45 102 55 SW
16.01.2020 19:00:00 5,4 - 81 44 126 68 SW
16.01.2020 18:00:00 5,3 - 91 49 126 68 SSW
16.01.2020 17:00:00 5,3 - 94 51 119 64 SSW
16.01.2020 16:00:00 4,7 - 94 51 119 64 SSW
16.01.2020 15:00:00 3,7 - 89 48 113 61 S
16.01.2020 14:00:00 3,0 - 81 44 107 58 S
16.01.2020 13:00:00 3,0 - 83 45 106 57 SSW
16.01.2020 12:00:00 1,4 - 65 35 85 46 S
16.01.2020 11:00:00 1,4 - 76 41 98 53 SSW
16.01.2020 10:00:00 1,5 - 80 43 98 53 SSW
16.01.2020 09:00:00 1,2 - 74 40 89 48 SSW
16.01.2020 08:00:00 1,1 - 70 38 87 47 SSW
16.01.2020 07:00:00 1,1 - 80 43 98 53 SSW
16.01.2020 06:00:00 1,1 - 81 44 96 52 SW
16.01.2020 05:00:00 0,9 - 65 35 74 40 SSW
16.01.2020 04:00:00 0,8 - 57 31 76 41 SW
16.01.2020 03:00:00 0,9 - 61 33 74 40 SW
16.01.2020 02:00:00 0,9 - 59 32 68 37 SW
16.01.2020 01:00:00 0,6 - 61 33 74 40 SW
16.01.2020 00:00:00 0,1 - 57 31 72 39 SW
15.01.2020 23:00:00 0,1 - 61 33 76 41 SW

tt = temperature
td = dewpoint
ff = wind speed
fx = gusts
dd = wind direction

Next stations